createdAt,value
2022-12-02T00:00:53.437Z,99041.13
2022-12-02T00:03:57.258Z,99043.73
2022-12-02T00:07:00.796Z,99038.77
2022-12-02T00:10:30.245Z,99034.29
2022-12-02T00:13:42.585Z,99033.23
2022-12-02T00:16:45.706Z,99033.83
2022-12-02T00:19:48.760Z,99032.86
2022-12-02T00:22:51.729Z,99033.95
2022-12-02T00:25:54.920Z,99036.23
2022-12-02T00:28:57.920Z,99036.67
2022-12-02T00:32:01.116Z,99031.35
2022-12-02T00:35:04.420Z,99031.77
2022-12-02T00:38:07.463Z,99027.85
2022-12-02T00:41:10.408Z,99027.73
2022-12-02T00:44:31.709Z,99026.23
2022-12-02T00:47:34.687Z,99021.45
2022-12-02T00:50:37.719Z,99018.09
2022-12-02T00:53:40.707Z,99018.85
2022-12-02T00:56:43.930Z,99018.77
2022-12-02T00:59:47.135Z,99019.91
2022-12-02T01:02:50.121Z,99024.05
2022-12-02T01:05:54.124Z,99020.83
2022-12-02T01:08:57.107Z,99020.95
2022-12-02T01:12:00.011Z,99020.56
2022-12-02T01:15:03.461Z,99024.45
2022-12-02T01:18:08.377Z,99022.03
2022-12-02T01:21:11.283Z,99022.93
2022-12-02T01:24:14.209Z,99018.88
2022-12-02T01:27:17.222Z,99015.11
2022-12-02T01:30:20.257Z,99014.35
2022-12-02T01:33:23.281Z,99012.69
2022-12-02T01:36:26.266Z,99009.45
2022-12-02T01:39:29.200Z,99009.66
2022-12-02T01:42:32.880Z,99008.89
2022-12-02T01:45:36.068Z,99008.48
2022-12-02T01:48:39.204Z,99011.64
2022-12-02T01:51:42.327Z,99007.63
2022-12-02T01:54:45.373Z,99007.88
2022-12-02T01:57:48.350Z,99001.54
2022-12-02T02:00:53.557Z,99002.10
2022-12-02T02:03:57.052Z,99002.32
2022-12-02T02:07:00.126Z,99001.20
2022-12-02T02:10:04.798Z,98998.59
2022-12-02T02:13:09.483Z,98994.13
2022-12-02T02:16:14.705Z,98994.13
2022-12-02T02:19:18.155Z,98989.53
2022-12-02T02:22:56.437Z,98991.86
2022-12-02T02:26:00.228Z,98991.16
2022-12-02T02:29:07.746Z,98993.88
2022-12-02T02:32:11.242Z,98990.91
2022-12-02T02:35:14.855Z,98993.87
2022-12-02T02:38:24.091Z,98991.98
2022-12-02T02:41:27.790Z,98987.40
2022-12-02T02:44:30.910Z,98989.70
2022-12-02T02:47:34.120Z,98991.50
2022-12-02T02:50:39.754Z,98991.23
2022-12-02T02:53:44.272Z,98991.20
2022-12-02T02:56:48.539Z,98988.10
2022-12-02T02:59:55.506Z,98988.85
2022-12-02T03:02:59.001Z,98988.05
2022-12-02T03:06:04.159Z,98992.03
2022-12-02T03:09:10.893Z,98989.70
2022-12-02T03:12:14.672Z,98985.61
2022-12-02T03:15:17.782Z,98983.95
2022-12-02T03:18:20.903Z,98984.35
2022-12-02T03:21:26.110Z,98982.82
2022-12-02T03:24:31.875Z,98980.81
2022-12-02T03:27:35.198Z,98977.75
2022-12-02T03:30:38.487Z,98974.20
2022-12-02T03:33:42.312Z,98972.61
2022-12-02T03:36:45.421Z,98968.92
2022-12-02T03:39:48.834Z,98965.07
2022-12-02T03:42:51.911Z,98966.43
2022-12-02T03:45:57.870Z,98963.73
2022-12-02T03:49:02.367Z,98957.23
2022-12-02T03:52:05.703Z,98961.26
2022-12-02T03:55:09.703Z,98960.18
2022-12-02T03:58:13.002Z,98959.88
2022-12-02T04:01:17.947Z,98960.58
2022-12-02T04:04:21.122Z,98962.34
2022-12-02T04:07:24.161Z,98960.36
2022-12-02T04:10:27.130Z,98959.37
2022-12-02T04:13:30.140Z,98964.40
2022-12-02T04:16:33.117Z,98963.33
2022-12-02T04:19:36.072Z,98961.40
2022-12-02T04:22:39.008Z,98965.23
2022-12-02T04:25:41.941Z,98966.79
2022-12-02T04:28:44.939Z,98966.79
2022-12-02T04:31:48.163Z,98966.33
2022-12-02T04:34:51.411Z,98966.45
2022-12-02T04:37:56.106Z,98964.96
2022-12-02T04:40:59.020Z,98962.15
2022-12-02T04:44:02.010Z,98963.65
2022-12-02T04:47:04.969Z,98962.16
2022-12-02T04:50:09.313Z,98956.87
2022-12-02T04:53:12.228Z,98956.88
2022-12-02T04:56:15.128Z,98955.79
2022-12-02T04:59:18.058Z,98951.71
2022-12-02T05:02:21.391Z,98958.23
2022-12-02T05:05:24.418Z,98956.05
2022-12-02T05:08:27.322Z,98956.33
2022-12-02T05:11:35.921Z,98957.89
2022-12-02T05:14:39.413Z,98953.50
2022-12-02T05:17:42.643Z,98954.77
2022-12-02T05:20:45.577Z,98954.67
2022-12-02T05:23:48.664Z,98953.79
2022-12-02T05:26:51.793Z,98954.48
2022-12-02T05:29:54.766Z,98952.98
2022-12-02T05:32:57.861Z,98953.20
2022-12-02T05:36:00.917Z,98953.21
2022-12-02T05:39:04.102Z,98954.36
2022-12-02T05:42:11.823Z,98950.82
2022-12-02T05:45:23.939Z,98950.56
2022-12-02T05:48:27.202Z,98955.98
2022-12-02T05:51:32.270Z,98960.06
2022-12-02T05:54:35.262Z,98958.48
2022-12-02T05:57:38.212Z,98965.27
2022-12-02T06:00:41.183Z,98963.34
2022-12-02T06:03:44.112Z,98962.81
2022-12-02T06:06:47.159Z,98968.09
2022-12-02T06:09:53.758Z,98970.66
2022-12-02T06:13:02.894Z,98969.45
2022-12-02T06:16:09.856Z,98972.00
2022-12-02T06:19:23.396Z,98973.56
2022-12-02T06:22:30.500Z,98973.80
2022-12-02T06:25:33.742Z,98972.42
2022-12-02T06:28:39.812Z,98975.32
2022-12-02T06:31:44.278Z,98978.77
2022-12-02T06:34:49.607Z,98978.01
2022-12-02T06:38:25.576Z,98977.02
2022-12-02T06:41:33.611Z,98968.30
2022-12-02T06:44:54.898Z,98978.00
2022-12-02T06:48:42.417Z,98979.14
2022-12-02T06:51:47.462Z,98984.74
2022-12-02T06:54:53.213Z,98989.32
2022-12-02T06:58:05.635Z,98987.13
2022-12-02T07:01:08.695Z,98987.73
2022-12-02T07:04:27.254Z,98986.02
2022-12-02T07:07:32.579Z,98991.62
2022-12-02T07:10:35.931Z,98990.15
2022-12-02T07:13:38.918Z,98988.89
2022-12-02T07:16:42.619Z,98991.02
2022-12-02T07:19:48.333Z,98985.54
2022-12-02T07:23:14.647Z,98993.40
2022-12-02T07:26:19.566Z,98987.60
2022-12-02T07:29:30.841Z,98989.48
2022-12-02T07:32:33.770Z,98993.36
2022-12-02T07:35:37.269Z,98996.23
2022-12-02T07:39:05.254Z,98998.08
2022-12-02T07:42:03.636Z,98993.78
2022-12-02T07:45:07.145Z,99000.72
2022-12-02T07:48:11.000Z,99003.25
2022-12-02T07:51:14.383Z,99007.00
2022-12-02T07:54:22.374Z,99009.19
2022-12-02T07:57:25.578Z,99011.55
2022-12-02T08:00:28.854Z,99007.72
2022-12-02T08:03:31.836Z,99004.34
2022-12-02T08:06:39.333Z,99001.85
2022-12-02T08:09:44.131Z,99006.45
2022-12-02T08:12:47.582Z,99005.36
2022-12-02T08:15:54.076Z,99003.48
2022-12-02T08:18:57.365Z,99005.46
2022-12-02T08:22:00.404Z,99001.55
2022-12-02T08:25:05.666Z,99000.55
2022-12-02T08:28:08.654Z,99000.02
2022-12-02T08:31:11.708Z,99001.23
2022-12-02T08:34:14.776Z,99003.59
2022-12-02T08:37:17.925Z,99004.71
2022-12-02T08:40:21.010Z,99006.67
2022-12-02T08:43:24.058Z,99010.30
2022-12-02T08:46:30.326Z,99009.64
2022-12-02T08:49:33.420Z,99010.05
2022-12-02T08:52:36.963Z,99006.49
2022-12-02T08:55:40.007Z,99005.75
2022-12-02T08:58:44.738Z,99010.96
2022-12-02T09:01:47.836Z,99015.05
2022-12-02T09:04:51.081Z,99016.55
2022-12-02T09:07:54.405Z,99013.11
2022-12-02T09:10:57.745Z,99013.64
2022-12-02T09:14:00.882Z,99007.34
2022-12-02T09:17:04.007Z,99013.10
2022-12-02T09:20:07.504Z,99011.38
2022-12-02T09:23:10.544Z,99011.82
2022-12-02T09:26:13.632Z,99004.46
2022-12-02T09:29:16.676Z,99007.93
2022-12-02T09:32:19.770Z,99006.52
2022-12-02T09:35:22.809Z,99006.30
2022-12-02T09:38:25.919Z,99000.88
2022-12-02T09:41:29.139Z,99002.92
2022-12-02T09:44:32.245Z,99004.08
2022-12-02T09:47:35.460Z,99001.27
2022-12-02T09:50:39.963Z,98999.34
2022-12-02T09:53:43.331Z,99001.11
2022-12-02T09:56:48.023Z,99001.17
2022-12-02T09:59:50.986Z,99001.16
2022-12-02T10:02:54.669Z,98998.27
2022-12-02T10:06:03.718Z,98996.73
2022-12-02T10:09:07.374Z,98995.89
2022-12-02T10:12:14.133Z,98993.81
2022-12-02T10:15:21.811Z,98992.79
2022-12-02T10:18:30.053Z,98987.67
2022-12-02T10:21:33.461Z,98989.45
2022-12-02T10:24:38.744Z,98984.09
2022-12-02T10:27:41.800Z,98985.37
2022-12-02T10:30:54.113Z,98981.94
2022-12-02T10:33:59.346Z,98975.95
2022-12-02T10:37:25.644Z,98975.23
2022-12-02T10:40:28.861Z,98968.84
2022-12-02T10:43:31.870Z,98969.51
2022-12-02T10:46:34.932Z,98966.86
2022-12-02T10:49:38.578Z,98965.77
2022-12-02T10:52:54.760Z,98963.64
2022-12-02T10:55:58.780Z,98960.45
2022-12-02T10:59:03.511Z,98963.45
2022-12-02T11:02:45.682Z,98961.76
2022-12-02T11:05:49.886Z,98960.20
2022-12-02T11:09:17.207Z,98959.69
2022-12-02T11:13:00.295Z,98955.01
2022-12-02T11:16:36.483Z,98956.29
2022-12-02T11:19:46.688Z,98955.15
2022-12-02T11:23:07.107Z,98952.22
2022-12-02T11:26:11.932Z,98952.69
2022-12-02T11:29:17.458Z,98951.46
2022-12-02T11:32:26.110Z,98952.26
2022-12-02T11:36:10.158Z,98951.40
2022-12-02T11:39:41.919Z,98951.21
2022-12-02T11:42:46.239Z,98946.84
2022-12-02T11:45:49.388Z,98947.89
2022-12-02T11:48:55.303Z,98949.27
2022-12-02T11:52:08.134Z,98950.91
2022-12-02T11:55:18.143Z,98949.35
2022-12-02T11:58:30.720Z,98949.35
2022-12-02T12:01:33.834Z,98945.86
2022-12-02T12:04:37.170Z,98950.97
2022-12-02T12:07:51.164Z,98942.36
2022-12-02T12:11:28.360Z,98942.09
2022-12-02T12:14:31.386Z,98939.14
2022-12-02T12:17:40.586Z,98942.81
2022-12-02T12:20:44.450Z,98944.25
2022-12-02T12:23:47.448Z,98941.00
2022-12-02T12:26:57.629Z,98941.35
2022-12-02T12:30:00.858Z,98939.30
2022-12-02T12:33:03.798Z,98936.50
2022-12-02T12:36:06.997Z,98936.90
2022-12-02T12:39:10.265Z,98939.55
2022-12-02T12:42:13.211Z,98934.83
2022-12-02T12:45:16.180Z,98935.98
2022-12-02T12:48:19.234Z,98936.91
2022-12-02T12:51:24.167Z,98935.48
2022-12-02T12:54:28.693Z,98933.73
2022-12-02T12:57:31.843Z,98934.42
2022-12-02T13:00:34.818Z,98938.61
2022-12-02T13:03:38.081Z,98937.44
2022-12-02T13:06:43.005Z,98935.55
2022-12-02T13:09:47.012Z,98936.63
2022-12-02T13:12:50.347Z,98932.30
2022-12-02T13:15:53.315Z,98928.22
2022-12-02T13:18:56.578Z,98934.55
2022-12-02T13:21:59.554Z,98933.50
2022-12-02T13:25:03.357Z,98938.88
2022-12-02T13:28:06.280Z,98935.77
2022-12-02T13:31:09.328Z,98938.63
2022-12-02T13:34:12.346Z,98939.27
2022-12-02T13:37:15.948Z,98933.95
2022-12-02T13:40:20.018Z,98933.48
2022-12-02T13:43:23.022Z,98931.71
2022-12-02T13:46:26.002Z,98933.41
2022-12-02T13:49:28.951Z,98932.60
2022-12-02T13:52:31.911Z,98934.52
2022-12-02T13:55:34.852Z,98936.50
2022-12-02T13:58:37.832Z,98937.27
2022-12-02T14:01:40.958Z,98938.17
2022-12-02T14:04:44.220Z,98937.67
2022-12-02T14:07:47.360Z,98935.98
2022-12-02T14:10:50.534Z,98936.34
2022-12-02T14:13:53.619Z,98933.75
2022-12-02T14:16:56.635Z,98935.05
2022-12-02T14:19:59.670Z,98940.40
2022-12-02T14:23:02.592Z,98941.08
2022-12-02T14:26:05.658Z,98943.41
2022-12-02T14:29:11.251Z,98950.79
2022-12-02T14:32:25.843Z,98950.11
2022-12-02T14:35:28.817Z,98953.74
2022-12-02T14:38:32.067Z,98955.92
2022-12-02T14:41:34.937Z,98957.82
2022-12-02T14:44:37.879Z,98959.85
2022-12-02T14:47:40.841Z,98962.45
2022-12-02T14:50:43.912Z,98959.84
2022-12-02T14:53:49.747Z,98963.52
2022-12-02T14:56:52.885Z,98958.02
2022-12-02T14:59:55.909Z,98957.35
2022-12-02T15:02:58.906Z,98960.83
2022-12-02T15:06:01.963Z,98958.27
2022-12-02T15:09:05.335Z,98958.08
2022-12-02T15:12:08.243Z,98956.39
2022-12-02T15:15:36.539Z,98958.56
2022-12-02T15:18:35.293Z,98957.91
2022-12-02T15:21:38.209Z,98953.27
2022-12-02T15:24:41.238Z,98957.15
2022-12-02T15:27:44.624Z,98957.45
2022-12-02T15:30:47.561Z,98955.00
2022-12-02T15:33:50.929Z,98952.77
2022-12-02T15:36:54.055Z,98957.28
2022-12-02T15:39:57.102Z,98953.17
2022-12-02T15:43:00.054Z,98952.44
2022-12-02T15:46:03.081Z,98957.42
2022-12-02T15:49:06.033Z,98956.96
2022-12-02T15:52:10.360Z,98957.37
2022-12-02T15:55:13.306Z,98961.59
2022-12-02T15:58:16.335Z,98965.70
2022-12-02T16:01:19.372Z,98965.23
2022-12-02T16:04:22.599Z,98965.48
2022-12-02T16:07:25.653Z,98963.38
2022-12-02T16:10:28.657Z,98968.28
2022-12-02T16:13:32.050Z,98967.16
2022-12-02T16:16:35.251Z,98962.09
2022-12-02T16:19:38.194Z,98966.05
2022-12-02T16:22:41.289Z,98969.44
2022-12-02T16:25:44.402Z,98971.21
2022-12-02T16:28:47.726Z,98972.14
2022-12-02T16:31:50.894Z,98970.67
2022-12-02T16:34:54.219Z,98972.55
2022-12-02T16:38:02.899Z,98973.86
2022-12-02T16:41:07.421Z,98973.16
2022-12-02T16:44:10.389Z,98973.26
2022-12-02T16:47:13.521Z,98970.12
2022-12-02T16:50:17.231Z,98969.96
2022-12-02T16:53:20.166Z,98974.80
2022-12-02T16:56:23.154Z,98972.59
2022-12-02T16:59:27.239Z,98976.96
2022-12-02T17:02:32.231Z,98979.70
2022-12-02T17:05:35.663Z,98980.75
2022-12-02T17:08:38.754Z,98981.04
2022-12-02T17:11:41.812Z,98983.58
2022-12-02T17:14:44.798Z,98986.75
2022-12-02T17:17:47.875Z,98986.43
2022-12-02T17:20:55.517Z,98992.08
2022-12-02T17:23:59.014Z,98991.11
2022-12-02T17:27:01.984Z,98991.39
2022-12-02T17:30:05.989Z,98994.36
2022-12-02T17:33:09.161Z,98998.70
2022-12-02T17:36:12.209Z,99005.41
2022-12-02T17:39:18.108Z,99005.73
2022-12-02T17:42:21.129Z,99004.77
2022-12-02T17:45:24.171Z,99009.98
2022-12-02T17:48:27.302Z,99009.70
2022-12-02T17:51:30.851Z,99010.00
2022-12-02T17:54:33.865Z,99011.44
2022-12-02T17:57:36.770Z,99009.17
2022-12-02T18:00:39.816Z,99008.55
2022-12-02T18:03:42.750Z,99011.05
2022-12-02T18:06:45.698Z,99007.73
2022-12-02T18:09:48.657Z,99004.11
2022-12-02T18:12:51.667Z,99006.61
2022-12-02T18:15:54.767Z,99007.04
2022-12-02T18:18:57.705Z,99000.34
2022-12-02T18:22:02.667Z,99003.69
2022-12-02T18:25:06.358Z,99002.74
2022-12-02T18:28:09.420Z,99000.28
2022-12-02T18:31:12.449Z,98998.55
2022-12-02T18:34:16.360Z,98996.01
2022-12-02T18:37:19.352Z,99001.76
2022-12-02T18:40:22.869Z,99001.23
2022-12-02T18:43:25.960Z,99001.17
2022-12-02T18:46:29.942Z,98998.11
2022-12-02T18:49:35.732Z,98996.18
2022-12-02T18:52:41.723Z,98994.79
2022-12-02T18:55:44.733Z,98992.39
2022-12-02T18:58:47.909Z,98994.27
2022-12-02T19:01:50.967Z,98992.73
2022-12-02T19:04:54.871Z,98995.02
2022-12-02T19:07:58.039Z,98994.68
2022-12-02T19:11:01.435Z,98995.66
2022-12-02T19:14:04.772Z,98996.59
2022-12-02T19:17:07.824Z,99001.19
2022-12-02T19:20:11.410Z,98999.17
2022-12-02T19:23:14.576Z,99000.04
2022-12-02T19:26:17.464Z,98998.77
2022-12-02T19:29:20.385Z,99003.06
2022-12-02T19:32:23.306Z,99006.27
2022-12-02T19:35:26.352Z,99006.93
2022-12-02T19:38:29.312Z,99000.73
2022-12-02T19:41:32.263Z,98998.28
2022-12-02T19:44:35.229Z,99000.52
2022-12-02T19:47:38.185Z,99006.81
2022-12-02T19:50:41.197Z,99005.00
2022-12-02T19:53:44.107Z,99002.05
2022-12-02T19:56:47.015Z,98994.80
2022-12-02T19:59:49.994Z,98996.88
2022-12-02T20:02:53.080Z,98997.16
2022-12-02T20:06:00.524Z,99001.94
2022-12-02T20:09:03.480Z,99002.49
2022-12-02T20:12:06.706Z,99003.30
2022-12-02T20:15:10.286Z,98996.82
2022-12-02T20:18:13.441Z,98996.57
2022-12-02T20:21:16.342Z,98993.06
2022-12-02T20:24:19.379Z,98991.74
2022-12-02T20:27:22.352Z,98989.70
2022-12-02T20:30:25.377Z,98992.45
2022-12-02T20:33:28.408Z,98985.77
2022-12-02T20:36:31.311Z,98988.16
2022-12-02T20:39:34.290Z,98983.73
2022-12-02T20:42:37.521Z,98982.40
2022-12-02T20:45:41.627Z,98984.02
2022-12-02T20:48:44.711Z,98979.89
2022-12-02T20:51:47.627Z,98976.14
2022-12-02T20:54:51.194Z,98975.84
2022-12-02T20:57:54.319Z,98973.09
2022-12-02T21:00:57.391Z,98974.84
2022-12-02T21:04:00.535Z,98970.64
2022-12-02T21:07:09.171Z,98973.16
2022-12-02T21:10:12.829Z,98969.95
2022-12-02T21:13:16.248Z,98969.92
2022-12-02T21:16:20.268Z,98969.14
2022-12-02T21:19:23.490Z,98970.60
2022-12-02T21:22:26.669Z,98973.49
2022-12-02T21:25:29.624Z,98970.45
2022-12-02T21:28:32.774Z,98974.39
2022-12-02T21:31:37.310Z,98981.45
2022-12-02T21:34:40.379Z,98982.44
2022-12-02T21:37:43.470Z,98983.73
2022-12-02T21:40:46.552Z,98987.29
2022-12-02T21:43:49.639Z,98984.02
2022-12-02T21:46:52.690Z,98976.52
2022-12-02T21:49:55.761Z,98973.72
2022-12-02T21:52:58.900Z,98973.14
2022-12-02T21:56:02.500Z,98972.05
2022-12-02T21:59:05.713Z,98975.02
2022-12-02T22:02:14.024Z,98973.16
2022-12-02T22:05:18.836Z,98973.23
2022-12-02T22:08:21.946Z,98974.86
2022-12-02T22:11:25.123Z,98973.40
2022-12-02T22:14:28.105Z,98977.48
2022-12-02T22:17:31.114Z,98974.95
2022-12-02T22:20:34.192Z,98976.38
2022-12-02T22:23:37.133Z,98978.61
2022-12-02T22:26:40.104Z,98980.76
2022-12-02T22:29:43.358Z,98978.13
2022-12-02T22:32:46.405Z,98974.91
2022-12-02T22:35:49.369Z,98971.70
2022-12-02T22:38:52.325Z,98972.75
2022-12-02T22:41:55.360Z,98971.16
2022-12-02T22:45:00.213Z,98973.01
2022-12-02T22:48:03.319Z,98974.05
2022-12-02T22:51:06.373Z,98972.69
2022-12-02T22:54:09.316Z,98972.77
2022-12-02T22:57:12.283Z,98974.91
2022-12-02T23:00:17.031Z,98976.21
2022-12-02T23:03:20.076Z,98970.17
2022-12-02T23:06:23.520Z,98971.55
2022-12-02T23:09:28.719Z,98963.86
2022-12-02T23:12:31.687Z,98966.40
2022-12-02T23:15:37.731Z,98968.45
2022-12-02T23:18:41.570Z,98970.66
2022-12-02T23:21:44.573Z,98970.06
2022-12-02T23:24:47.487Z,98968.73
2022-12-02T23:27:50.504Z,98967.68
2022-12-02T23:30:53.544Z,98962.65
2022-12-02T23:33:56.619Z,98966.67
2022-12-02T23:37:00.008Z,98964.95
2022-12-02T23:40:04.995Z,98965.08
2022-12-02T23:43:07.917Z,98968.47
2022-12-02T23:46:11.116Z,98968.24
2022-12-02T23:49:14.049Z,98971.36
2022-12-02T23:52:17.005Z,98973.84
2022-12-02T23:55:19.920Z,98975.02
2022-12-02T23:58:22.914Z,98974.87
